Aviation Digital Data Service (ADDS)

Output produced by METARs form (1211 UTC 29 May 2015)
found at http://aviationweather.gov/adds/metars/
 
KFRG 291153Z 03008KT 10SM CLR 19/13 A3029 RMK AO2 SLP257 70007 T01940133 10194 20156 51012
KISP 291156Z 02008KT 10SM FEW250 20/13 A3028 RMK AO2 SLP253 T02000133 10200 20156 51012
KISP 291127Z 2912/3012 02006KT P6SM SKC 
     FM291500 VRB05KT P6SM SKC 
     FM291700 16008KT P6SM SKC 
     FM300000 VRB04KT P6SM FEW250 
     FM300800 VRB03KT 1SM BR BKN010
       
KJFK 291151Z 02010KT 10SM FEW250 21/12 A3030 RMK AO2 SLP260 T02110122 10211 20178 51013
KJFK 291127Z 2912/3018 04006KT P6SM SKC 
     FM291500 VRB04KT P6SM SKC 
     FM291700 15009KT P6SM SKC 
     FM300100 VRB04KT P6SM SCT250 
     FM300800 VRB05KT 1SM BR BKN010 
     FM301300 19010KT P6SM FEW010 BKN150
       
KBDR 291152Z 03007KT 10SM CLR 20/14 A3030 RMK AO2 SLP259 70004 T02000139 10200 20150 51013
KBDR 291127Z 2912/3012 04007KT P6SM SKC 
     FM291500 VRB05KT P6SM SKC 
     FM291700 14008KT P6SM SKC 
     FM300200 VRB04KT P6SM FEW250 
     FM300800 VRB03KT 1SM BR BKN010